createdAt,value
2024-01-31T00:01:45.666Z,12.90
2024-01-31T00:06:52.666Z,15.30
2024-01-31T00:11:56.111Z,15.03
2024-01-31T00:17:00.133Z,16.23
2024-01-31T00:22:03.602Z,14.60
2024-01-31T00:27:07.140Z,17.80
2024-01-31T00:32:10.656Z,16.00
2024-01-31T00:37:14.122Z,16.03
2024-01-31T00:42:17.663Z,16.20
2024-01-31T00:47:21.604Z,13.87
2024-01-31T00:52:25.215Z,18.50
2024-01-31T00:57:28.772Z,16.10
2024-01-31T01:02:32.839Z,14.83
2024-01-31T01:07:40.576Z,14.53
2024-01-31T01:12:44.510Z,14.73
2024-01-31T01:17:47.934Z,15.17
2024-01-31T01:22:51.358Z,16.37
2024-01-31T01:27:54.789Z,12.60
2024-01-31T01:32:58.345Z,16.37
2024-01-31T01:38:01.896Z,16.07
2024-01-31T01:43:21.988Z,17.13
2024-01-31T01:48:26.001Z,15.20
2024-01-31T01:53:33.585Z,12.20
2024-01-31T01:58:38.970Z,12.47
2024-01-31T02:03:44.819Z,15.73
2024-01-31T02:08:49.688Z,15.60
2024-01-31T02:13:53.242Z,14.40
2024-01-31T02:18:56.859Z,14.00
2024-01-31T02:24:00.424Z,14.40
2024-01-31T02:29:04.268Z,15.60
2024-01-31T02:34:07.752Z,14.23
2024-01-31T02:39:11.076Z,14.00
2024-01-31T02:44:14.517Z,14.83
2024-01-31T02:49:18.130Z,14.63
2024-01-31T02:54:21.480Z,14.07
2024-01-31T02:59:25.328Z,14.20
2024-01-31T03:04:29.516Z,13.47
2024-01-31T03:09:32.985Z,13.13
2024-01-31T03:14:36.604Z,15.07
2024-01-31T03:19:41.878Z,13.33
2024-01-31T03:24:46.221Z,14.63
2024-01-31T03:29:49.748Z,14.20
2024-01-31T03:34:53.248Z,29.53
2024-01-31T03:39:56.894Z,17.47
2024-01-31T03:45:00.465Z,22.83
2024-01-31T03:50:05.829Z,17.73
2024-01-31T03:55:10.493Z,20.20
2024-01-31T04:00:14.820Z,18.83
2024-01-31T04:05:18.620Z,20.80
2024-01-31T04:10:22.342Z,20.67
2024-01-31T04:15:25.844Z,19.27
2024-01-31T04:20:29.347Z,18.87
2024-01-31T04:25:33.219Z,21.27
2024-01-31T04:30:36.639Z,20.47
2024-01-31T04:35:40.085Z,20.93
2024-01-31T04:40:43.464Z,19.83
2024-01-31T04:45:46.769Z,18.60
2024-01-31T04:50:51.419Z,19.83
2024-01-31T04:55:55.072Z,20.13
2024-01-31T05:00:59.462Z,15.97
2024-01-31T05:06:04.217Z,17.57
2024-01-31T05:11:07.848Z,16.30
2024-01-31T05:16:11.698Z,23.07
2024-01-31T05:21:15.241Z,18.30
2024-01-31T05:26:19.460Z,19.43
2024-01-31T05:31:22.976Z,18.43
2024-01-31T05:36:26.397Z,20.37
2024-01-31T05:41:29.801Z,20.77
2024-01-31T05:46:33.686Z,19.67
2024-01-31T05:51:37.191Z,18.83
2024-01-31T05:56:40.837Z,18.70
2024-01-31T06:01:44.415Z,17.47
2024-01-31T06:06:47.916Z,21.63
2024-01-31T06:11:51.385Z,19.13
2024-01-31T06:16:54.935Z,22.40
2024-01-31T06:21:58.375Z,19.10
2024-01-31T06:27:01.942Z,18.83
2024-01-31T06:32:06.375Z,24.03
2024-01-31T06:37:09.897Z,21.13
2024-01-31T06:42:13.254Z,22.80
2024-01-31T06:47:18.096Z,21.73
2024-01-31T06:52:22.142Z,24.73
2024-01-31T06:57:25.810Z,26.90
2024-01-31T07:02:29.275Z,28.43
2024-01-31T07:07:34.539Z,25.60
2024-01-31T07:12:38.019Z,27.40
2024-01-31T07:17:41.618Z,25.17
2024-01-31T07:22:45.801Z,28.67
2024-01-31T07:27:50.852Z,24.47
2024-01-31T07:32:54.724Z,24.93
2024-01-31T07:37:58.114Z,23.27
2024-01-31T07:43:01.524Z,23.03
2024-01-31T07:48:05.791Z,23.50
2024-01-31T07:53:09.225Z,49.03
2024-01-31T07:58:12.805Z,24.43
2024-01-31T08:03:16.366Z,28.83
2024-01-31T08:08:19.859Z,28.43
2024-01-31T08:13:23.474Z,26.90
2024-01-31T08:18:26.867Z,27.33
2024-01-31T08:23:30.277Z,31.70
2024-01-31T08:28:33.683Z,31.03
2024-01-31T08:33:37.474Z,31.47
2024-01-31T08:38:44.503Z,33.67
2024-01-31T08:43:48.566Z,34.53
2024-01-31T08:48:52.176Z,36.77
2024-01-31T08:53:55.499Z,34.17
2024-01-31T08:58:59.075Z,28.47
2024-01-31T09:04:02.974Z,29.67
2024-01-31T09:09:07.658Z,31.07
2024-01-31T09:14:10.996Z,27.73
2024-01-31T09:19:14.550Z,26.60
2024-01-31T09:24:18.397Z,27.10
2024-01-31T09:29:21.706Z,23.60
2024-01-31T09:34:25.526Z,21.67
2024-01-31T09:39:31.741Z,20.03
2024-01-31T09:44:36.534Z,19.70
2024-01-31T09:49:40.382Z,21.67
2024-01-31T09:54:47.231Z,20.00
2024-01-31T09:59:52.081Z,24.17
2024-01-31T10:04:56.307Z,25.70
2024-01-31T10:10:01.296Z,23.10
2024-01-31T10:15:08.370Z,24.40
2024-01-31T10:20:14.222Z,26.10
2024-01-31T10:25:21.151Z,25.57
2024-01-31T10:30:25.248Z,22.03
2024-01-31T10:35:48.401Z,19.33
2024-01-31T10:40:56.688Z,18.60
2024-01-31T10:46:00.496Z,22.00
2024-01-31T10:51:05.756Z,19.63
2024-01-31T10:56:11.858Z,19.57
2024-01-31T11:01:17.719Z,17.77
2024-01-31T11:06:21.478Z,21.83
2024-01-31T11:11:25.189Z,18.83
2024-01-31T11:16:28.782Z,19.50
2024-01-31T11:21:41.093Z,26.23
2024-01-31T11:26:44.845Z,18.50
2024-01-31T11:31:48.593Z,20.67
2024-01-31T11:36:52.077Z,18.20
2024-01-31T11:41:56.215Z,17.77
2024-01-31T11:46:59.507Z,20.83
2024-01-31T11:52:04.886Z,20.97
2024-01-31T11:57:08.534Z,19.40
2024-01-31T12:02:12.048Z,20.00
2024-01-31T12:07:15.894Z,17.90
2024-01-31T12:12:20.423Z,16.97
2024-01-31T12:17:28.622Z,16.90
2024-01-31T12:22:34.124Z,18.67
2024-01-31T12:27:38.450Z,18.80
2024-01-31T12:32:44.636Z,18.23
2024-01-31T12:37:48.584Z,16.23
2024-01-31T12:42:51.986Z,16.17
2024-01-31T12:47:56.168Z,19.10
2024-01-31T12:52:59.706Z,17.07
2024-01-31T12:58:03.660Z,16.93
2024-01-31T13:03:07.040Z,17.70
2024-01-31T13:08:11.288Z,18.50
2024-01-31T13:13:15.244Z,15.40
2024-01-31T13:18:18.845Z,14.63
2024-01-31T13:23:22.492Z,14.87
2024-01-31T13:28:25.985Z,16.67
2024-01-31T13:33:29.787Z,12.23
2024-01-31T13:38:33.280Z,14.63
2024-01-31T13:43:36.561Z,12.57
2024-01-31T13:48:40.222Z,12.37
2024-01-31T13:53:43.732Z,9.77
2024-01-31T13:58:47.411Z,10.93
2024-01-31T14:03:50.922Z,13.97
2024-01-31T14:08:54.402Z,13.83
2024-01-31T14:13:57.940Z,14.93
2024-01-31T14:19:01.444Z,15.87
2024-01-31T14:24:12.472Z,16.67
2024-01-31T14:29:21.581Z,17.70
2024-01-31T14:34:25.315Z,17.50
2024-01-31T14:39:28.931Z,19.53
2024-01-31T14:44:34.480Z,14.07
2024-01-31T14:49:38.193Z,17.43
2024-01-31T14:54:41.720Z,16.50
2024-01-31T14:59:45.203Z,17.43
2024-01-31T15:04:49.144Z,19.57
2024-01-31T15:09:52.565Z,17.67
2024-01-31T15:14:55.974Z,18.43
2024-01-31T15:20:00.410Z,18.80
2024-01-31T15:25:05.100Z,17.80
2024-01-31T15:30:09.641Z,17.33
2024-01-31T15:35:13.368Z,17.83
2024-01-31T15:40:16.895Z,16.50
2024-01-31T15:45:22.789Z,16.00
2024-01-31T15:50:27.363Z,17.50
2024-01-31T15:55:31.082Z,16.13
2024-01-31T16:00:34.747Z,16.87
2024-01-31T16:05:40.320Z,18.27
2024-01-31T16:10:44.010Z,16.37
2024-01-31T16:15:50.384Z,17.57
2024-01-31T16:20:54.042Z,20.17
2024-01-31T16:25:59.344Z,19.33
2024-01-31T16:31:06.598Z,20.37
2024-01-31T16:36:17.818Z,18.90
2024-01-31T16:41:24.949Z,18.97
2024-01-31T16:46:28.578Z,20.17
2024-01-31T16:51:32.914Z,24.13
2024-01-31T16:56:36.405Z,22.43
2024-01-31T17:01:43.656Z,26.30
2024-01-31T17:06:48.884Z,24.57
2024-01-31T17:11:54.100Z,26.83
2024-01-31T17:16:58.249Z,26.60
2024-01-31T17:22:02.295Z,24.97
2024-01-31T17:27:06.808Z,25.43
2024-01-31T17:32:13.843Z,28.00
2024-01-31T17:37:18.259Z,21.67
2024-01-31T17:42:23.815Z,18.40
2024-01-31T17:47:27.707Z,18.67
2024-01-31T17:52:31.774Z,18.23
2024-01-31T17:57:36.132Z,19.43
2024-01-31T18:02:40.081Z,18.97
2024-01-31T18:07:44.639Z,20.77
2024-01-31T18:12:48.381Z,18.23
2024-01-31T18:17:52.277Z,18.30
2024-01-31T18:22:55.994Z,29.63
2024-01-31T18:27:59.870Z,27.17
2024-01-31T18:33:04.668Z,25.63
2024-01-31T18:38:08.250Z,18.40
2024-01-31T18:43:12.597Z,18.33
2024-01-31T18:48:16.519Z,17.50
2024-01-31T18:53:20.514Z,17.10
2024-01-31T18:58:26.331Z,18.47
2024-01-31T19:03:29.740Z,21.60
2024-01-31T19:08:33.926Z,22.13
2024-01-31T19:13:39.804Z,24.63
2024-01-31T19:18:43.364Z,21.50
2024-01-31T19:23:47.956Z,19.27
2024-01-31T19:28:54.305Z,19.93
2024-01-31T19:33:57.821Z,21.80
2024-01-31T19:39:01.427Z,23.30
2024-01-31T19:44:05.029Z,21.40
2024-01-31T19:49:08.746Z,21.83
2024-01-31T19:54:13.309Z,22.03
2024-01-31T19:59:17.864Z,18.33
2024-01-31T20:04:21.651Z,19.63
2024-01-31T20:09:25.077Z,20.43
2024-01-31T20:14:28.740Z,20.00
2024-01-31T20:19:32.370Z,16.50
2024-01-31T20:24:35.858Z,20.27
2024-01-31T20:29:39.431Z,20.83
2024-01-31T20:34:43.020Z,26.43
2024-01-31T20:39:46.495Z,27.50
2024-01-31T20:44:49.772Z,27.83
2024-01-31T20:49:53.523Z,32.37
2024-01-31T20:54:57.104Z,27.43
2024-01-31T21:00:00.624Z,29.83
2024-01-31T21:05:08.087Z,28.77
2024-01-31T21:10:15.125Z,28.00
2024-01-31T21:15:18.831Z,31.97
2024-01-31T21:20:22.587Z,33.03
2024-01-31T21:25:26.945Z,37.50
2024-01-31T21:30:30.408Z,38.37
2024-01-31T21:35:33.806Z,33.53
2024-01-31T21:40:37.023Z,24.37
2024-01-31T21:45:40.624Z,24.37
2024-01-31T21:50:44.057Z,23.53
2024-01-31T21:55:48.393Z,19.60
2024-01-31T22:00:51.775Z,24.97
2024-01-31T22:05:56.141Z,26.03
2024-01-31T22:10:59.645Z,23.73
2024-01-31T22:16:05.052Z,24.43
2024-01-31T22:21:08.486Z,21.10
2024-01-31T22:26:12.033Z,24.50
2024-01-31T22:31:15.698Z,20.37
2024-01-31T22:36:19.154Z,22.47
2024-01-31T22:41:22.861Z,25.37
2024-01-31T22:46:26.792Z,31.00
2024-01-31T22:51:30.382Z,34.30
2024-01-31T22:56:35.241Z,24.63
2024-01-31T23:01:38.796Z,20.00
2024-01-31T23:06:42.594Z,17.53
2024-01-31T23:11:47.097Z,23.13
2024-01-31T23:16:50.723Z,24.30
2024-01-31T23:21:53.937Z,24.47
2024-01-31T23:26:57.514Z,24.70
2024-01-31T23:32:00.906Z,23.67
2024-01-31T23:37:05.039Z,20.57
2024-01-31T23:42:08.571Z,19.37
2024-01-31T23:47:12.122Z,23.40
2024-01-31T23:52:15.535Z,22.80
2024-01-31T23:57:19.137Z,22.07
